sensor_id;sensor_type;location;lat;lon;timestamp;P1;durP1;ratioP1;P2;durP2;ratioP2
13185;SDS011;6658;53.080;7.428;2022-10-23T00:01:23;21.07;;;13.10;;
13185;SDS011;6658;53.080;7.428;2022-10-23T00:03:52;18.20;;;12.23;;
13185;SDS011;6658;53.080;7.428;2022-10-23T00:06:20;20.90;;;12.80;;
13185;SDS011;6658;53.080;7.428;2022-10-23T00:08:46;19.10;;;12.60;;
13185;SDS011;6658;53.080;7.428;2022-10-23T00:11:13;17.67;;;12.73;;
13185;SDS011;6658;53.080;7.428;2022-10-23T00:13:45;21.63;;;13.20;;
13185;SDS011;6658;53.080;7.428;2022-10-23T00:16:11;20.10;;;12.83;;
13185;SDS011;6658;53.080;7.428;2022-10-23T00:18:37;18.60;;;12.47;;
13185;SDS011;6658;53.080;7.428;2022-10-23T00:21:04;19.50;;;12.00;;
13185;SDS011;6658;53.080;7.428;2022-10-23T00:23:34;23.50;;;13.37;;
13185;SDS011;6658;53.080;7.428;2022-10-23T00:26:00;18.37;;;13.00;;
13185;SDS011;6658;53.080;7.428;2022-10-23T00:28:27;16.13;;;11.40;;
13185;SDS011;6658;53.080;7.428;2022-10-23T00:30:53;18.03;;;12.10;;
13185;SDS011;6658;53.080;7.428;2022-10-23T00:33:18;15.00;;;11.77;;
13185;SDS011;6658;53.080;7.428;2022-10-23T00:35:44;18.43;;;11.93;;
13185;SDS011;6658;53.080;7.428;2022-10-23T00:38:10;17.83;;;11.93;;
13185;SDS011;6658;53.080;7.428;2022-10-23T00:40:37;18.43;;;11.83;;
13185;SDS011;6658;53.080;7.428;2022-10-23T00:43:03;18.90;;;12.63;;
13185;SDS011;6658;53.080;7.428;2022-10-23T00:45:30;21.73;;;12.90;;
13185;SDS011;6658;53.080;7.428;2022-10-23T00:47:58;20.17;;;13.20;;
13185;SDS011;6658;53.080;7.428;2022-10-23T00:50:26;20.27;;;13.03;;
13185;SDS011;6658;53.080;7.428;2022-10-23T00:52:55;21.77;;;12.53;;
13185;SDS011;6658;53.080;7.428;2022-10-23T00:55:23;19.17;;;13.33;;
13185;SDS011;6658;53.080;7.428;2022-10-23T00:57:51;21.70;;;13.60;;
13185;SDS011;6658;53.080;7.428;2022-10-23T01:00:21;20.83;;;13.60;;
13185;SDS011;6658;53.080;7.428;2022-10-23T01:02:50;21.67;;;13.23;;
13185;SDS011;6658;53.080;7.428;2022-10-23T01:05:16;25.13;;;13.40;;
13185;SDS011;6658;53.080;7.428;2022-10-23T01:07:53;20.77;;;13.03;;
13185;SDS011;6658;53.080;7.428;2022-10-23T01:13:04;24.17;;;13.70;;
13185;SDS011;6658;53.080;7.428;2022-10-23T01:16:10;16.57;;;12.33;;
13185;SDS011;6658;53.080;7.428;2022-10-23T01:18:44;21.53;;;12.27;;
13185;SDS011;6658;53.080;7.428;2022-10-23T01:30:03;23.13;;;12.67;;
13185;SDS011;6658;53.080;7.428;2022-10-23T01:32:43;20.13;;;12.53;;
13185;SDS011;6658;53.080;7.428;2022-10-23T01:35:19;23.40;;;13.90;;
13185;SDS011;6658;53.080;7.428;2022-10-23T01:38:08;19.07;;;12.43;;
13185;SDS011;6658;53.080;7.428;2022-10-23T01:41:01;17.27;;;11.83;;
13185;SDS011;6658;53.080;7.428;2022-10-23T01:43:43;18.57;;;12.57;;
13185;SDS011;6658;53.080;7.428;2022-10-23T01:46:15;20.90;;;12.77;;
13185;SDS011;6658;53.080;7.428;2022-10-23T01:48:45;18.80;;;11.73;;
13185;SDS011;6658;53.080;7.428;2022-10-23T01:51:17;21.83;;;12.47;;
13185;SDS011;6658;53.080;7.428;2022-10-23T01:53:45;16.53;;;12.07;;
13185;SDS011;6658;53.080;7.428;2022-10-23T01:56:17;19.57;;;12.13;;
13185;SDS011;6658;53.080;7.428;2022-10-23T01:58:47;17.27;;;11.57;;
13185;SDS011;6658;53.080;7.428;2022-10-23T02:01:17;18.13;;;11.70;;
13185;SDS011;6658;53.080;7.428;2022-10-23T02:03:46;18.27;;;11.53;;
13185;SDS011;6658;53.080;7.428;2022-10-23T02:06:14;19.60;;;12.90;;
13185;SDS011;6658;53.080;7.428;2022-10-23T02:08:39;19.50;;;13.07;;
13185;SDS011;6658;53.080;7.428;2022-10-23T02:11:07;20.30;;;13.33;;
13185;SDS011;6658;53.080;7.428;2022-10-23T02:13:48;22.73;;;12.83;;
13185;SDS011;6658;53.080;7.428;2022-10-23T02:16:36;19.57;;;12.80;;
13185;SDS011;6658;53.080;7.428;2022-10-23T02:24:38;16.53;;;12.27;;
13185;SDS011;6658;53.080;7.428;2022-10-23T02:27:16;19.37;;;12.63;;
13185;SDS011;6658;53.080;7.428;2022-10-23T02:30:07;19.73;;;12.77;;
13185;SDS011;6658;53.080;7.428;2022-10-23T02:32:35;18.70;;;13.60;;
13185;SDS011;6658;53.080;7.428;2022-10-23T02:35:05;18.53;;;12.80;;
13185;SDS011;6658;53.080;7.428;2022-10-23T02:37:32;22.20;;;13.83;;
13185;SDS011;6658;53.080;7.428;2022-10-23T02:39:58;22.17;;;12.80;;
13185;SDS011;6658;53.080;7.428;2022-10-23T02:53:40;20.53;;;12.60;;
13185;SDS011;6658;53.080;7.428;2022-10-23T03:01:48;21.07;;;13.50;;
13185;SDS011;6658;53.080;7.428;2022-10-23T03:04:17;21.50;;;12.20;;
13185;SDS011;6658;53.080;7.428;2022-10-23T03:06:44;19.33;;;13.13;;
13185;SDS011;6658;53.080;7.428;2022-10-23T03:09:10;24.27;;;14.10;;
13185;SDS011;6658;53.080;7.428;2022-10-23T03:11:36;22.00;;;14.17;;
13185;SDS011;6658;53.080;7.428;2022-10-23T03:14:02;25.43;;;14.97;;
13185;SDS011;6658;53.080;7.428;2022-10-23T03:16:27;23.07;;;13.43;;
13185;SDS011;6658;53.080;7.428;2022-10-23T03:18:53;18.37;;;12.77;;
13185;SDS011;6658;53.080;7.428;2022-10-23T03:21:19;20.83;;;13.73;;
13185;SDS011;6658;53.080;7.428;2022-10-23T03:23:45;20.47;;;13.50;;
13185;SDS011;6658;53.080;7.428;2022-10-23T03:26:11;22.17;;;14.47;;
13185;SDS011;6658;53.080;7.428;2022-10-23T03:28:37;23.57;;;14.20;;
13185;SDS011;6658;53.080;7.428;2022-10-23T03:31:02;22.57;;;13.43;;
13185;SDS011;6658;53.080;7.428;2022-10-23T03:33:29;20.87;;;13.97;;
13185;SDS011;6658;53.080;7.428;2022-10-23T03:35:56;24.67;;;15.10;;
13185;SDS011;6658;53.080;7.428;2022-10-23T03:38:21;27.70;;;13.90;;
13185;SDS011;6658;53.080;7.428;2022-10-23T03:40:47;32.93;;;15.40;;
13185;SDS011;6658;53.080;7.428;2022-10-23T03:43:13;24.87;;;13.80;;
13185;SDS011;6658;53.080;7.428;2022-10-23T03:45:39;28.33;;;15.83;;
13185;SDS011;6658;53.080;7.428;2022-10-23T03:48:05;28.90;;;16.17;;
13185;SDS011;6658;53.080;7.428;2022-10-23T03:50:32;26.73;;;15.43;;
13185;SDS011;6658;53.080;7.428;2022-10-23T03:52:58;24.57;;;15.33;;
13185;SDS011;6658;53.080;7.428;2022-10-23T03:55:24;26.63;;;14.80;;
13185;SDS011;6658;53.080;7.428;2022-10-23T03:57:51;26.40;;;17.60;;
13185;SDS011;6658;53.080;7.428;2022-10-23T04:00:18;26.63;;;15.97;;
13185;SDS011;6658;53.080;7.428;2022-10-23T04:02:44;24.83;;;16.03;;
13185;SDS011;6658;53.080;7.428;2022-10-23T04:05:09;29.17;;;16.43;;
13185;SDS011;6658;53.080;7.428;2022-10-23T04:07:36;31.47;;;15.83;;
13185;SDS011;6658;53.080;7.428;2022-10-23T04:10:02;28.47;;;16.13;;
13185;SDS011;6658;53.080;7.428;2022-10-23T04:12:29;24.63;;;14.60;;
13185;SDS011;6658;53.080;7.428;2022-10-23T04:14:55;27.90;;;16.50;;
13185;SDS011;6658;53.080;7.428;2022-10-23T04:17:20;26.00;;;16.13;;
13185;SDS011;6658;53.080;7.428;2022-10-23T04:19:46;26.97;;;16.37;;
13185;SDS011;6658;53.080;7.428;2022-10-23T04:22:12;27.23;;;16.40;;
13185;SDS011;6658;53.080;7.428;2022-10-23T04:24:37;28.80;;;16.00;;
13185;SDS011;6658;53.080;7.428;2022-10-23T04:27:07;30.47;;;16.73;;
13185;SDS011;6658;53.080;7.428;2022-10-23T04:29:33;26.57;;;16.87;;
13185;SDS011;6658;53.080;7.428;2022-10-23T04:31:59;30.10;;;17.50;;
13185;SDS011;6658;53.080;7.428;2022-10-23T04:34:24;36.23;;;18.43;;
13185;SDS011;6658;53.080;7.428;2022-10-23T04:36:50;31.43;;;18.00;;
13185;SDS011;6658;53.080;7.428;2022-10-23T04:39:16;31.33;;;17.77;;
13185;SDS011;6658;53.080;7.428;2022-10-23T04:41:41;33.87;;;18.43;;
13185;SDS011;6658;53.080;7.428;2022-10-23T04:44:07;32.73;;;18.57;;
13185;SDS011;6658;53.080;7.428;2022-10-23T04:46:33;29.20;;;17.93;;
13185;SDS011;6658;53.080;7.428;2022-10-23T04:48:58;35.07;;;17.97;;
13185;SDS011;6658;53.080;7.428;2022-10-23T04:51:24;31.50;;;17.53;;
13185;SDS011;6658;53.080;7.428;2022-10-23T04:53:50;30.87;;;17.30;;
13185;SDS011;6658;53.080;7.428;2022-10-23T04:56:16;30.23;;;17.50;;
13185;SDS011;6658;53.080;7.428;2022-10-23T04:58:41;34.43;;;17.70;;
13185;SDS011;6658;53.080;7.428;2022-10-23T05:01:08;25.73;;;17.17;;
13185;SDS011;6658;53.080;7.428;2022-10-23T05:03:34;34.63;;;18.17;;
13185;SDS011;6658;53.080;7.428;2022-10-23T05:06:01;32.57;;;17.33;;
13185;SDS011;6658;53.080;7.428;2022-10-23T05:08:27;26.97;;;17.50;;
13185;SDS011;6658;53.080;7.428;2022-10-23T05:10:53;26.87;;;16.77;;
13185;SDS011;6658;53.080;7.428;2022-10-23T05:13:19;33.87;;;18.27;;
13185;SDS011;6658;53.080;7.428;2022-10-23T05:15:48;31.07;;;17.13;;
13185;SDS011;6658;53.080;7.428;2022-10-23T05:18:17;27.43;;;17.60;;
13185;SDS011;6658;53.080;7.428;2022-10-23T05:20:44;28.60;;;16.40;;
13185;SDS011;6658;53.080;7.428;2022-10-23T05:23:12;31.57;;;17.47;;
13185;SDS011;6658;53.080;7.428;2022-10-23T05:25:42;27.70;;;17.07;;
13185;SDS011;6658;53.080;7.428;2022-10-23T05:28:08;30.20;;;16.17;;
13185;SDS011;6658;53.080;7.428;2022-10-23T05:30:34;28.10;;;16.13;;
13185;SDS011;6658;53.080;7.428;2022-10-23T05:33:00;27.63;;;16.90;;
13185;SDS011;6658;53.080;7.428;2022-10-23T05:35:26;27.00;;;17.27;;
13185;SDS011;6658;53.080;7.428;2022-10-23T05:37:54;28.50;;;16.60;;
13185;SDS011;6658;53.080;7.428;2022-10-23T05:40:23;31.43;;;17.20;;
13185;SDS011;6658;53.080;7.428;2022-10-23T05:42:49;29.93;;;16.60;;
13185;SDS011;6658;53.080;7.428;2022-10-23T05:45:15;27.20;;;15.90;;
13185;SDS011;6658;53.080;7.428;2022-10-23T05:47:42;26.10;;;15.53;;
13185;SDS011;6658;53.080;7.428;2022-10-23T05:50:09;29.13;;;16.77;;
13185;SDS011;6658;53.080;7.428;2022-10-23T05:52:35;25.57;;;16.80;;
13185;SDS011;6658;53.080;7.428;2022-10-23T05:55:01;27.27;;;15.87;;
13185;SDS011;6658;53.080;7.428;2022-10-23T05:57:27;23.17;;;15.13;;
13185;SDS011;6658;53.080;7.428;2022-10-23T05:59:52;21.77;;;16.00;;
13185;SDS011;6658;53.080;7.428;2022-10-23T06:02:18;24.50;;;15.63;;
13185;SDS011;6658;53.080;7.428;2022-10-23T06:04:44;23.03;;;15.33;;
13185;SDS011;6658;53.080;7.428;2022-10-23T06:07:10;24.90;;;15.50;;
13185;SDS011;6658;53.080;7.428;2022-10-23T06:09:35;24.37;;;14.90;;
13185;SDS011;6658;53.080;7.428;2022-10-23T06:12:01;26.13;;;15.80;;
13185;SDS011;6658;53.080;7.428;2022-10-23T06:14:27;25.13;;;14.93;;
13185;SDS011;6658;53.080;7.428;2022-10-23T06:16:53;26.33;;;15.90;;
13185;SDS011;6658;53.080;7.428;2022-10-23T06:19:18;23.43;;;14.80;;
13185;SDS011;6658;53.080;7.428;2022-10-23T06:21:44;25.63;;;14.67;;
13185;SDS011;6658;53.080;7.428;2022-10-23T06:24:10;27.43;;;16.03;;
13185;SDS011;6658;53.080;7.428;2022-10-23T06:26:36;20.53;;;14.50;;
13185;SDS011;6658;53.080;7.428;2022-10-23T06:29:02;22.63;;;14.20;;
13185;SDS011;6658;53.080;7.428;2022-10-23T06:31:28;21.03;;;14.17;;
13185;SDS011;6658;53.080;7.428;2022-10-23T06:33:54;21.63;;;13.73;;
13185;SDS011;6658;53.080;7.428;2022-10-23T06:36:21;27.20;;;14.07;;
13185;SDS011;6658;53.080;7.428;2022-10-23T06:38:46;24.93;;;13.40;;
13185;SDS011;6658;53.080;7.428;2022-10-23T06:41:15;23.43;;;15.03;;
13185;SDS011;6658;53.080;7.428;2022-10-23T06:43:41;26.17;;;15.23;;
13185;SDS011;6658;53.080;7.428;2022-10-23T06:46:07;23.10;;;14.20;;
13185;SDS011;6658;53.080;7.428;2022-10-23T06:48:34;24.97;;;14.83;;
13185;SDS011;6658;53.080;7.428;2022-10-23T06:51:03;23.47;;;15.93;;
13185;SDS011;6658;53.080;7.428;2022-10-23T06:53:33;21.17;;;14.67;;
13185;SDS011;6658;53.080;7.428;2022-10-23T06:56:00;22.13;;;14.63;;
13185;SDS011;6658;53.080;7.428;2022-10-23T06:58:26;22.33;;;15.03;;
13185;SDS011;6658;53.080;7.428;2022-10-23T07:00:53;24.43;;;15.63;;
13185;SDS011;6658;53.080;7.428;2022-10-23T07:03:19;26.70;;;15.53;;
13185;SDS011;6658;53.080;7.428;2022-10-23T07:05:45;25.87;;;16.53;;
13185;SDS011;6658;53.080;7.428;2022-10-23T07:08:14;26.23;;;16.33;;
13185;SDS011;6658;53.080;7.428;2022-10-23T07:10:40;25.07;;;17.20;;
13185;SDS011;6658;53.080;7.428;2022-10-23T07:13:09;27.77;;;16.53;;
13185;SDS011;6658;53.080;7.428;2022-10-23T07:15:36;23.10;;;15.87;;
13185;SDS011;6658;53.080;7.428;2022-10-23T07:18:03;28.40;;;15.40;;
13185;SDS011;6658;53.080;7.428;2022-10-23T07:20:30;21.77;;;15.77;;
13185;SDS011;6658;53.080;7.428;2022-10-23T07:22:55;28.47;;;15.03;;
13185;SDS011;6658;53.080;7.428;2022-10-23T07:25:23;26.37;;;15.37;;
13185;SDS011;6658;53.080;7.428;2022-10-23T07:27:50;22.83;;;15.07;;
13185;SDS011;6658;53.080;7.428;2022-10-23T07:30:16;22.50;;;14.13;;
13185;SDS011;6658;53.080;7.428;2022-10-23T07:32:42;21.27;;;13.93;;
13185;SDS011;6658;53.080;7.428;2022-10-23T07:35:09;21.07;;;14.50;;
13185;SDS011;6658;53.080;7.428;2022-10-23T07:37:36;18.27;;;13.70;;
13185;SDS011;6658;53.080;7.428;2022-10-23T07:40:03;18.97;;;13.50;;
13185;SDS011;6658;53.080;7.428;2022-10-23T07:42:30;18.80;;;13.53;;
13185;SDS011;6658;53.080;7.428;2022-10-23T07:44:56;25.90;;;14.43;;
13185;SDS011;6658;53.080;7.428;2022-10-23T07:47:21;19.03;;;13.57;;
13185;SDS011;6658;53.080;7.428;2022-10-23T07:49:47;16.33;;;12.43;;
13185;SDS011;6658;53.080;7.428;2022-10-23T07:52:13;22.70;;;14.30;;
13185;SDS011;6658;53.080;7.428;2022-10-23T07:54:39;18.07;;;12.73;;
13185;SDS011;6658;53.080;7.428;2022-10-23T07:57:04;16.93;;;12.77;;
13185;SDS011;6658;53.080;7.428;2022-10-23T07:59:31;19.17;;;11.60;;
13185;SDS011;6658;53.080;7.428;2022-10-23T08:01:58;13.57;;;11.33;;
13185;SDS011;6658;53.080;7.428;2022-10-23T08:04:24;16.13;;;12.80;;
13185;SDS011;6658;53.080;7.428;2022-10-23T08:06:50;17.23;;;11.70;;
13185;SDS011;6658;53.080;7.428;2022-10-23T08:09:16;14.63;;;11.80;;
13185;SDS011;6658;53.080;7.428;2022-10-23T08:11:41;14.00;;;11.53;;
13185;SDS011;6658;53.080;7.428;2022-10-23T08:14:07;15.80;;;10.67;;
13185;SDS011;6658;53.080;7.428;2022-10-23T08:16:34;16.73;;;11.23;;
13185;SDS011;6658;53.080;7.428;2022-10-23T08:19:02;14.00;;;10.53;;
13185;SDS011;6658;53.080;7.428;2022-10-23T08:21:29;16.67;;;10.83;;
13185;SDS011;6658;53.080;7.428;2022-10-23T08:23:55;15.00;;;9.40;;
13185;SDS011;6658;53.080;7.428;2022-10-23T08:26:22;11.90;;;9.97;;
13185;SDS011;6658;53.080;7.428;2022-10-23T08:28:48;14.23;;;10.27;;
13185;SDS011;6658;53.080;7.428;2022-10-23T08:31:15;12.20;;;9.57;;
13185;SDS011;6658;53.080;7.428;2022-10-23T08:33:43;12.23;;;9.60;;
13185;SDS011;6658;53.080;7.428;2022-10-23T08:36:29;12.33;;;8.83;;
13185;SDS011;6658;53.080;7.428;2022-10-23T08:38:55;17.13;;;9.87;;
13185;SDS011;6658;53.080;7.428;2022-10-23T08:41:23;13.53;;;9.40;;
13185;SDS011;6658;53.080;7.428;2022-10-23T08:44:06;11.43;;;8.77;;
13185;SDS011;6658;53.080;7.428;2022-10-23T08:49:50;10.10;;;8.13;;
13185;SDS011;6658;53.080;7.428;2022-10-23T08:52:35;9.00;;;8.10;;
13185;SDS011;6658;53.080;7.428;2022-10-23T08:55:40;10.00;;;8.07;;
13185;SDS011;6658;53.080;7.428;2022-10-23T08:58:11;10.10;;;7.63;;
13185;SDS011;6658;53.080;7.428;2022-10-23T09:00:47;8.67;;;7.80;;
13185;SDS011;6658;53.080;7.428;2022-10-23T09:03:14;8.67;;;7.03;;
13185;SDS011;6658;53.080;7.428;2022-10-23T09:05:47;9.83;;;7.70;;
13185;SDS011;6658;53.080;7.428;2022-10-23T09:17:24;10.53;;;7.23;;
13185;SDS011;6658;53.080;7.428;2022-10-23T09:19:25;9.13;;;6.80;;
13185;SDS011;6658;53.080;7.428;2022-10-23T09:21:52;8.43;;;6.87;;
13185;SDS011;6658;53.080;7.428;2022-10-23T09:24:20;9.10;;;6.67;;
13185;SDS011;6658;53.080;7.428;2022-10-23T09:26:51;7.60;;;6.83;;
13185;SDS011;6658;53.080;7.428;2022-10-23T09:29:22;7.43;;;6.73;;
13185;SDS011;6658;53.080;7.428;2022-10-23T09:31:52;7.77;;;6.33;;
13185;SDS011;6658;53.080;7.428;2022-10-23T09:34:21;7.30;;;6.50;;
13185;SDS011;6658;53.080;7.428;2022-10-23T09:37:02;7.47;;;6.83;;
13185;SDS011;6658;53.080;7.428;2022-10-23T09:40:11;8.70;;;6.20;;
13185;SDS011;6658;53.080;7.428;2022-10-23T09:42:56;7.77;;;5.50;;
13185;SDS011;6658;53.080;7.428;2022-10-23T09:45:31;8.53;;;5.80;;
13185;SDS011;6658;53.080;7.428;2022-10-23T09:48:17;7.70;;;5.90;;
13185;SDS011;6658;53.080;7.428;2022-10-23T09:50:47;6.90;;;6.30;;
13185;SDS011;6658;53.080;7.428;2022-10-23T09:53:39;6.87;;;6.27;;
13185;SDS011;6658;53.080;7.428;2022-10-23T09:56:30;8.97;;;6.33;;
13185;SDS011;6658;53.080;7.428;2022-10-23T09:59:15;7.33;;;6.13;;
13185;SDS011;6658;53.080;7.428;2022-10-23T10:01:50;6.63;;;5.90;;
13185;SDS011;6658;53.080;7.428;2022-10-23T10:04:18;6.60;;;5.90;;
13185;SDS011;6658;53.080;7.428;2022-10-23T10:07:20;6.87;;;6.17;;
13185;SDS011;6658;53.080;7.428;2022-10-23T10:09:55;7.27;;;6.07;;
13185;SDS011;6658;53.080;7.428;2022-10-23T10:17:50;8.13;;;6.37;;
13185;SDS011;6658;53.080;7.428;2022-10-23T10:21:00;7.57;;;6.27;;
13185;SDS011;6658;53.080;7.428;2022-10-23T10:26:24;6.97;;;6.37;;
13185;SDS011;6658;53.080;7.428;2022-10-23T10:34:44;6.50;;;5.60;;
13185;SDS011;6658;53.080;7.428;2022-10-23T10:45:56;5.80;;;5.30;;
13185;SDS011;6658;53.080;7.428;2022-10-23T10:51:23;6.73;;;5.67;;
13185;SDS011;6658;53.080;7.428;2022-10-23T10:54:02;6.93;;;4.90;;
13185;SDS011;6658;53.080;7.428;2022-10-23T10:56:43;6.17;;;4.97;;
13185;SDS011;6658;53.080;7.428;2022-10-23T11:04:31;5.80;;;4.83;;
13185;SDS011;6658;53.080;7.428;2022-10-23T11:07:10;7.43;;;4.73;;
13185;SDS011;6658;53.080;7.428;2022-10-23T11:09:41;7.03;;;4.50;;
13185;SDS011;6658;53.080;7.428;2022-10-23T11:12:23;4.93;;;4.43;;
13185;SDS011;6658;53.080;7.428;2022-10-23T11:14:51;5.23;;;4.67;;
13185;SDS011;6658;53.080;7.428;2022-10-23T11:17:18;5.90;;;3.90;;
13185;SDS011;6658;53.080;7.428;2022-10-23T11:31:16;4.20;;;2.73;;
13185;SDS011;6658;53.080;7.428;2022-10-23T11:39:28;3.73;;;2.87;;
13185;SDS011;6658;53.080;7.428;2022-10-23T11:42:10;2.93;;;2.50;;
13185;SDS011;6658;53.080;7.428;2022-10-23T11:47:56;2.87;;;2.53;;
13185;SDS011;6658;53.080;7.428;2022-10-23T11:52:34;3.77;;;2.40;;
13185;SDS011;6658;53.080;7.428;2022-10-23T11:55:19;3.67;;;2.57;;
13185;SDS011;6658;53.080;7.428;2022-10-23T12:01:23;3.10;;;2.20;;
13185;SDS011;6658;53.080;7.428;2022-10-23T12:11:48;3.10;;;2.50;;
13185;SDS011;6658;53.080;7.428;2022-10-23T12:16:53;4.50;;;2.50;;
13185;SDS011;6658;53.080;7.428;2022-10-23T12:19:20;4.93;;;2.43;;
13185;SDS011;6658;53.080;7.428;2022-10-23T12:21:49;3.33;;;2.10;;
13185;SDS011;6658;53.080;7.428;2022-10-23T12:40:39;4.57;;;2.73;;
13185;SDS011;6658;53.080;7.428;2022-10-23T12:43:19;3.10;;;2.50;;
13185;SDS011;6658;53.080;7.428;2022-10-23T12:45:51;3.87;;;2.40;;
13185;SDS011;6658;53.080;7.428;2022-10-23T12:48:18;5.47;;;2.40;;
13185;SDS011;6658;53.080;7.428;2022-10-23T12:50:50;3.43;;;2.20;;
13185;SDS011;6658;53.080;7.428;2022-10-23T12:53:18;4.50;;;2.40;;
13185;SDS011;6658;53.080;7.428;2022-10-23T12:55:59;3.10;;;2.80;;
13185;SDS011;6658;53.080;7.428;2022-10-23T12:58:37;2.27;;;1.97;;
13185;SDS011;6658;53.080;7.428;2022-10-23T13:01:21;5.57;;;2.00;;
13185;SDS011;6658;53.080;7.428;2022-10-23T13:03:55;5.57;;;2.40;;
13185;SDS011;6658;53.080;7.428;2022-10-23T13:06:34;5.30;;;2.30;;
13185;SDS011;6658;53.080;7.428;2022-10-23T13:09:01;5.93;;;2.90;;
13185;SDS011;6658;53.080;7.428;2022-10-23T13:11:28;4.43;;;2.43;;
13185;SDS011;6658;53.080;7.428;2022-10-23T13:13:55;3.33;;;2.30;;
13185;SDS011;6658;53.080;7.428;2022-10-23T13:16:21;2.13;;;1.93;;
13185;SDS011;6658;53.080;7.428;2022-10-23T13:18:48;4.20;;;2.53;;
13185;SDS011;6658;53.080;7.428;2022-10-23T13:21:24;7.03;;;3.03;;
13185;SDS011;6658;53.080;7.428;2022-10-23T13:23:52;4.40;;;2.33;;
13185;SDS011;6658;53.080;7.428;2022-10-23T13:26:21;3.57;;;1.90;;
13185;SDS011;6658;53.080;7.428;2022-10-23T13:32:11;3.10;;;2.30;;
13185;SDS011;6658;53.080;7.428;2022-10-23T13:34:50;3.07;;;2.13;;
13185;SDS011;6658;53.080;7.428;2022-10-23T13:37:21;2.47;;;2.17;;
13185;SDS011;6658;53.080;7.428;2022-10-23T13:40:02;2.20;;;2.00;;
13185;SDS011;6658;53.080;7.428;2022-10-23T13:42:43;3.93;;;2.20;;
13185;SDS011;6658;53.080;7.428;2022-10-23T13:45:14;2.40;;;2.00;;
13185;SDS011;6658;53.080;7.428;2022-10-23T13:47:43;2.73;;;2.20;;
13185;SDS011;6658;53.080;7.428;2022-10-23T13:50:09;2.57;;;2.20;;
13185;SDS011;6658;53.080;7.428;2022-10-23T13:52:35;2.10;;;1.80;;
13185;SDS011;6658;53.080;7.428;2022-10-23T13:55:02;3.10;;;2.10;;
13185;SDS011;6658;53.080;7.428;2022-10-23T13:57:34;4.13;;;2.10;;
13185;SDS011;6658;53.080;7.428;2022-10-23T13:59:59;2.73;;;1.70;;
13185;SDS011;6658;53.080;7.428;2022-10-23T14:02:25;4.00;;;1.80;;
13185;SDS011;6658;53.080;7.428;2022-10-23T14:04:51;3.57;;;2.00;;
13185;SDS011;6658;53.080;7.428;2022-10-23T14:07:16;3.30;;;2.47;;
13185;SDS011;6658;53.080;7.428;2022-10-23T14:09:42;2.27;;;1.80;;
13185;SDS011;6658;53.080;7.428;2022-10-23T14:12:08;2.87;;;1.97;;
13185;SDS011;6658;53.080;7.428;2022-10-23T14:14:35;4.73;;;1.90;;
13185;SDS011;6658;53.080;7.428;2022-10-23T14:17:01;4.07;;;2.10;;
13185;SDS011;6658;53.080;7.428;2022-10-23T14:19:27;3.30;;;1.83;;
13185;SDS011;6658;53.080;7.428;2022-10-23T14:21:53;4.83;;;1.83;;
13185;SDS011;6658;53.080;7.428;2022-10-23T14:24:19;4.27;;;1.93;;
13185;SDS011;6658;53.080;7.428;2022-10-23T14:26:44;6.60;;;2.00;;
13185;SDS011;6658;53.080;7.428;2022-10-23T14:29:10;3.13;;;1.80;;
13185;SDS011;6658;53.080;7.428;2022-10-23T14:31:36;3.23;;;1.80;;
13185;SDS011;6658;53.080;7.428;2022-10-23T14:34:01;2.23;;;1.70;;
13185;SDS011;6658;53.080;7.428;2022-10-23T14:36:27;3.90;;;2.00;;
13185;SDS011;6658;53.080;7.428;2022-10-23T14:38:56;5.20;;;2.13;;
13185;SDS011;6658;53.080;7.428;2022-10-23T14:41:24;2.20;;;1.77;;
13185;SDS011;6658;53.080;7.428;2022-10-23T14:43:50;2.67;;;2.10;;
13185;SDS011;6658;53.080;7.428;2022-10-23T14:46:20;4.57;;;1.90;;
13185;SDS011;6658;53.080;7.428;2022-10-23T14:48:47;4.57;;;1.90;;
13185;SDS011;6658;53.080;7.428;2022-10-23T14:51:17;2.70;;;1.90;;
13185;SDS011;6658;53.080;7.428;2022-10-23T14:53:47;3.73;;;2.30;;
13185;SDS011;6658;53.080;7.428;2022-10-23T14:56:13;3.47;;;1.93;;
13185;SDS011;6658;53.080;7.428;2022-10-23T14:58:39;5.13;;;2.13;;
13185;SDS011;6658;53.080;7.428;2022-10-23T15:01:07;3.93;;;1.87;;
13185;SDS011;6658;53.080;7.428;2022-10-23T15:03:34;4.17;;;1.80;;
13185;SDS011;6658;53.080;7.428;2022-10-23T15:06:00;3.70;;;2.10;;
13185;SDS011;6658;53.080;7.428;2022-10-23T15:08:26;3.67;;;2.40;;
13185;SDS011;6658;53.080;7.428;2022-10-23T15:10:52;4.00;;;2.37;;
13185;SDS011;6658;53.080;7.428;2022-10-23T15:13:18;5.17;;;1.90;;
13185;SDS011;6658;53.080;7.428;2022-10-23T15:15:43;2.90;;;1.80;;
13185;SDS011;6658;53.080;7.428;2022-10-23T15:18:09;2.20;;;2.00;;
13185;SDS011;6658;53.080;7.428;2022-10-23T15:20:35;4.40;;;2.40;;
13185;SDS011;6658;53.080;7.428;2022-10-23T15:23:01;3.50;;;2.03;;
13185;SDS011;6658;53.080;7.428;2022-10-23T15:25:27;2.73;;;2.10;;
13185;SDS011;6658;53.080;7.428;2022-10-23T15:27:53;3.30;;;1.97;;
13185;SDS011;6658;53.080;7.428;2022-10-23T15:30:18;1.83;;;1.70;;
13185;SDS011;6658;53.080;7.428;2022-10-23T15:32:44;3.33;;;2.00;;
13185;SDS011;6658;53.080;7.428;2022-10-23T15:35:10;2.67;;;2.30;;
13185;SDS011;6658;53.080;7.428;2022-10-23T15:37:35;3.73;;;2.23;;
13185;SDS011;6658;53.080;7.428;2022-10-23T15:40:02;5.53;;;1.90;;
13185;SDS011;6658;53.080;7.428;2022-10-23T15:42:28;3.73;;;1.80;;
13185;SDS011;6658;53.080;7.428;2022-10-23T15:44:53;1.90;;;1.70;;
13185;SDS011;6658;53.080;7.428;2022-10-23T15:47:19;3.07;;;1.80;;
13185;SDS011;6658;53.080;7.428;2022-10-23T15:49:45;2.00;;;1.80;;
13185;SDS011;6658;53.080;7.428;2022-10-23T15:52:11;3.60;;;2.07;;
13185;SDS011;6658;53.080;7.428;2022-10-23T15:54:36;1.50;;;1.40;;
13185;SDS011;6658;53.080;7.428;2022-10-23T15:57:02;3.53;;;2.17;;
13185;SDS011;6658;53.080;7.428;2022-10-23T15:59:29;2.20;;;1.60;;
13185;SDS011;6658;53.080;7.428;2022-10-23T16:01:56;4.30;;;1.93;;
13185;SDS011;6658;53.080;7.428;2022-10-23T16:04:22;3.23;;;2.20;;
13185;SDS011;6658;53.080;7.428;2022-10-23T16:06:48;3.97;;;1.90;;
13185;SDS011;6658;53.080;7.428;2022-10-23T16:09:14;3.03;;;2.03;;
13185;SDS011;6658;53.080;7.428;2022-10-23T16:11:40;4.53;;;1.57;;
13185;SDS011;6658;53.080;7.428;2022-10-23T16:14:08;2.03;;;1.50;;
13185;SDS011;6658;53.080;7.428;2022-10-23T16:16:37;2.20;;;1.50;;
13185;SDS011;6658;53.080;7.428;2022-10-23T16:19:04;3.00;;;1.60;;
13185;SDS011;6658;53.080;7.428;2022-10-23T16:21:30;1.80;;;1.70;;
13185;SDS011;6658;53.080;7.428;2022-10-23T16:23:58;2.60;;;1.60;;
13185;SDS011;6658;53.080;7.428;2022-10-23T16:26:26;1.97;;;1.77;;
13185;SDS011;6658;53.080;7.428;2022-10-23T16:28:53;2.80;;;1.50;;
13185;SDS011;6658;53.080;7.428;2022-10-23T16:31:24;2.17;;;1.70;;
13185;SDS011;6658;53.080;7.428;2022-10-23T16:33:51;2.53;;;2.03;;
13185;SDS011;6658;53.080;7.428;2022-10-23T16:36:17;2.93;;;1.80;;
13185;SDS011;6658;53.080;7.428;2022-10-23T16:38:43;3.67;;;2.07;;
13185;SDS011;6658;53.080;7.428;2022-10-23T16:41:09;3.30;;;1.50;;
13185;SDS011;6658;53.080;7.428;2022-10-23T16:43:35;3.83;;;1.40;;
13185;SDS011;6658;53.080;7.428;2022-10-23T16:46:02;2.83;;;2.23;;
13185;SDS011;6658;53.080;7.428;2022-10-23T16:48:31;2.27;;;1.43;;
13185;SDS011;6658;53.080;7.428;2022-10-23T16:50:58;1.90;;;1.70;;
13185;SDS011;6658;53.080;7.428;2022-10-23T16:53:24;4.20;;;1.73;;
13185;SDS011;6658;53.080;7.428;2022-10-23T16:55:54;1.60;;;1.50;;
13185;SDS011;6658;53.080;7.428;2022-10-23T16:58:23;2.40;;;1.80;;
13185;SDS011;6658;53.080;7.428;2022-10-23T17:03:25;2.07;;;1.60;;
13185;SDS011;6658;53.080;7.428;2022-10-23T17:05:51;3.90;;;1.80;;
13185;SDS011;6658;53.080;7.428;2022-10-23T17:08:17;5.23;;;1.70;;
13185;SDS011;6658;53.080;7.428;2022-10-23T17:10:43;4.90;;;2.63;;
13185;SDS011;6658;53.080;7.428;2022-10-23T17:13:09;1.90;;;1.70;;